sensor_id;sensor_type;location;lat;lon;timestamp;pressure;altitude;pressure_sealevel;temperature;humidity
56198;BME280;42700;42.524;12.052;2022-10-24T00:00:39;99097.59;;;18.36;100.00
56198;BME280;42700;42.524;12.052;2022-10-24T00:03:04;99078.13;;;18.34;100.00
56198;BME280;42700;42.524;12.052;2022-10-24T00:05:30;99071.06;;;18.33;100.00
56198;BME280;42700;42.524;12.052;2022-10-24T00:07:55;98993.25;;;18.24;100.00
56198;BME280;42700;42.524;12.052;2022-10-24T00:10:21;99073.13;;;18.31;100.00
56198;BME280;42700;42.524;12.052;2022-10-24T00:12:46;99123.63;;;18.35;100.00
56198;BME280;42700;42.524;12.052;2022-10-24T00:15:12;99129.22;;;18.34;100.00
56198;BME280;42700;42.524;12.052;2022-10-24T00:17:38;99138.94;;;18.35;100.00
56198;BME280;42700;42.524;12.052;2022-10-24T00:20:04;99131.91;;;18.34;100.00
56198;BME280;42700;42.524;12.052;2022-10-24T00:22:30;99124.84;;;18.33;100.00
56198;BME280;42700;42.524;12.052;2022-10-24T00:24:55;99102.72;;;18.31;100.00
56198;BME280;42700;42.524;12.052;2022-10-24T00:27:21;99096.66;;;18.29;100.00
56198;BME280;42700;42.524;12.052;2022-10-24T00:29:46;99078.88;;;18.28;100.00
56198;BME280;42700;42.524;12.052;2022-10-24T00:32:12;99149.06;;;18.33;100.00
56198;BME280;42700;42.524;12.052;2022-10-24T00:34:38;99159.81;;;18.33;100.00
56198;BME280;42700;42.524;12.052;2022-10-24T00:37:04;99254.81;;;18.40;100.00
56198;BME280;42700;42.524;12.052;2022-10-24T00:39:29;99257.50;;;18.40;100.00
56198;BME280;42700;42.524;12.052;2022-10-24T00:41:55;99251.50;;;18.38;100.00
56198;BME280;42700;42.524;12.052;2022-10-24T00:44:31;99276.16;;;18.41;100.00
56198;BME280;42700;42.524;12.052;2022-10-24T00:47:01;99301.22;;;18.42;100.00
56198;BME280;42700;42.524;12.052;2022-10-24T00:49:39;99215.91;;;18.36;100.00
56198;BME280;42700;42.524;12.052;2022-10-24T00:52:08;99302.66;;;18.44;100.00
56198;BME280;42700;42.524;12.052;2022-10-24T00:54:34;99237.03;;;18.39;100.00
56198;BME280;42700;42.524;12.052;2022-10-24T00:59:30;99105.78;;;18.28;100.00
56198;BME280;42700;42.524;12.052;2022-10-24T01:01:57;99066.84;;;18.23;100.00
56198;BME280;42700;42.524;12.052;2022-10-24T01:04:22;99008.50;;;18.17;100.00
56198;BME280;42700;42.524;12.052;2022-10-24T01:07:04;98988.19;;;18.15;100.00
56198;BME280;42700;42.524;12.052;2022-10-24T01:16:59;98786.25;;;17.89;100.00
56198;BME280;42700;42.524;12.052;2022-10-24T01:22:07;98674.34;;;17.75;100.00
56198;BME280;42700;42.524;12.052;2022-10-24T01:30:06;98531.09;;;17.55;100.00
56198;BME280;42700;42.524;12.052;2022-10-24T01:32:40;98518.69;;;17.53;100.00
56198;BME280;42700;42.524;12.052;2022-10-24T01:35:20;98524.25;;;17.52;100.00
56198;BME280;42700;42.524;12.052;2022-10-24T01:40:14;98470.94;;;17.42;100.00
56198;BME280;42700;42.524;12.052;2022-10-24T01:42:41;98433.94;;;17.38;100.00
56198;BME280;42700;42.524;12.052;2022-10-24T01:45:09;98384.59;;;17.32;100.00
56198;BME280;42700;42.524;12.052;2022-10-24T01:47:38;98315.81;;;17.24;100.00
56198;BME280;42700;42.524;12.052;2022-10-24T01:50:05;98240.69;;;17.18;100.00
56198;BME280;42700;42.524;12.052;2022-10-24T01:52:32;98211.56;;;17.14;100.00
56198;BME280;42700;42.524;12.052;2022-10-24T01:55:00;98126.34;;;17.03;100.00
56198;BME280;42700;42.524;12.052;2022-10-24T01:57:27;98080.56;;;16.98;100.00
56198;BME280;42700;42.524;12.052;2022-10-24T01:59:52;98033.09;;;16.92;100.00
56198;BME280;42700;42.524;12.052;2022-10-24T02:02:19;97950.16;;;16.84;100.00
56198;BME280;42700;42.524;12.052;2022-10-24T02:04:54;97894.06;;;16.75;100.00
56198;BME280;42700;42.524;12.052;2022-10-24T02:07:21;97822.50;;;16.69;100.00
56198;BME280;42700;42.524;12.052;2022-10-24T02:09:49;97762.16;;;16.60;100.00
56198;BME280;42700;42.524;12.052;2022-10-24T02:12:15;97721.72;;;16.55;100.00
56198;BME280;42700;42.524;12.052;2022-10-24T02:14:44;97731.63;;;16.54;100.00
56198;BME280;42700;42.524;12.052;2022-10-24T02:17:11;97676.41;;;16.47;100.00
56198;BME280;42700;42.524;12.052;2022-10-24T02:19:37;97633.56;;;16.40;100.00
56198;BME280;42700;42.524;12.052;2022-10-24T02:24:32;97643.69;;;16.38;100.00
56198;BME280;42700;42.524;12.052;2022-10-24T02:27:05;97674.00;;;16.38;100.00
56198;BME280;42700;42.524;12.052;2022-10-24T02:32:05;97699.16;;;16.37;100.00
56198;BME280;42700;42.524;12.052;2022-10-24T02:34:31;97737.88;;;16.41;100.00
56198;BME280;42700;42.524;12.052;2022-10-24T02:36:58;97746.97;;;16.40;100.00
56198;BME280;42700;42.524;12.052;2022-10-24T02:39:25;97756.03;;;16.39;100.00
56198;BME280;42700;42.524;12.052;2022-10-24T02:41:52;97796.41;;;16.45;100.00
56198;BME280;42700;42.524;12.052;2022-10-24T02:44:19;97786.97;;;16.42;100.00
56198;BME280;42700;42.524;12.052;2022-10-24T02:46:45;97764.88;;;16.40;100.00
56198;BME280;42700;42.524;12.052;2022-10-24T02:49:12;97722.66;;;16.35;100.00
56198;BME280;42700;42.524;12.052;2022-10-24T02:51:38;97671.56;;;16.30;100.00
56198;BME280;42700;42.524;12.052;2022-10-24T02:54:05;97679.63;;;16.30;100.00
56198;BME280;42700;42.524;12.052;2022-10-24T02:56:31;97693.00;;;16.30;100.00
56198;BME280;42700;42.524;12.052;2022-10-24T02:58:56;97709.09;;;16.30;100.00
56198;BME280;42700;42.524;12.052;2022-10-24T03:01:22;97737.50;;;16.31;100.00
56198;BME280;42700;42.524;12.052;2022-10-24T03:03:47;97748.03;;;16.33;100.00
56198;BME280;42700;42.524;12.052;2022-10-24T03:06:13;97734.22;;;16.29;100.00
56198;BME280;42700;42.524;12.052;2022-10-24T03:08:39;97708.47;;;16.28;100.00
56198;BME280;42700;42.524;12.052;2022-10-24T03:11:05;97699.81;;;16.26;100.00
56198;BME280;42700;42.524;12.052;2022-10-24T03:13:31;97700.84;;;16.25;100.00
56198;BME280;42700;42.524;12.052;2022-10-24T03:15:56;97642.78;;;16.19;100.00
56198;BME280;42700;42.524;12.052;2022-10-24T03:18:22;97593.31;;;16.15;100.00
56198;BME280;42700;42.524;12.052;2022-10-24T03:20:47;97565.34;;;16.11;100.00
56198;BME280;42700;42.524;12.052;2022-10-24T03:23:13;97602.41;;;16.14;100.00
56198;BME280;42700;42.524;12.052;2022-10-24T03:25:39;97565.78;;;16.08;100.00
56198;BME280;42700;42.524;12.052;2022-10-24T03:28:04;97569.47;;;16.07;100.00
56198;BME280;42700;42.524;12.052;2022-10-24T03:30:30;97562.50;;;16.05;100.00
56198;BME280;42700;42.524;12.052;2022-10-24T03:32:55;97629.63;;;16.11;100.00
56198;BME280;42700;42.524;12.052;2022-10-24T03:35:21;97625.28;;;16.10;100.00
56198;BME280;42700;42.524;12.052;2022-10-24T03:37:46;97665.25;;;16.11;100.00
56198;BME280;42700;42.524;12.052;2022-10-24T03:40:12;97554.28;;;16.00;100.00
56198;BME280;42700;42.524;12.052;2022-10-24T03:42:38;97455.47;;;15.92;100.00
56198;BME280;42700;42.524;12.052;2022-10-24T03:45:03;97420.44;;;15.87;100.00
56198;BME280;42700;42.524;12.052;2022-10-24T03:47:29;97421.72;;;15.84;100.00
56198;BME280;42700;42.524;12.052;2022-10-24T03:49:54;97433.25;;;15.85;100.00
56198;BME280;42700;42.524;12.052;2022-10-24T03:52:20;97440.69;;;15.83;100.00
56198;BME280;42700;42.524;12.052;2022-10-24T03:54:46;97446.03;;;15.83;100.00
56198;BME280;42700;42.524;12.052;2022-10-24T03:57:11;97492.16;;;15.85;100.00
56198;BME280;42700;42.524;12.052;2022-10-24T03:59:37;97550.63;;;15.88;100.00
56198;BME280;42700;42.524;12.052;2022-10-24T04:02:03;97606.22;;;15.93;100.00
56198;BME280;42700;42.524;12.052;2022-10-24T04:04:29;97669.84;;;15.97;100.00
56198;BME280;42700;42.524;12.052;2022-10-24T04:06:55;97676.25;;;15.96;100.00
56198;BME280;42700;42.524;12.052;2022-10-24T04:09:20;97710.63;;;15.99;100.00
56198;BME280;42700;42.524;12.052;2022-10-24T04:11:46;97782.13;;;16.05;100.00
56198;BME280;42700;42.524;12.052;2022-10-24T04:14:12;97828.25;;;16.08;100.00
56198;BME280;42700;42.524;12.052;2022-10-24T04:16:38;97829.91;;;16.09;100.00
56198;BME280;42700;42.524;12.052;2022-10-24T04:19:03;97949.81;;;16.20;100.00
56198;BME280;42700;42.524;12.052;2022-10-24T04:21:29;97956.81;;;16.21;100.00
56198;BME280;42700;42.524;12.052;2022-10-24T04:23:55;97878.94;;;16.16;100.00
56198;BME280;42700;42.524;12.052;2022-10-24T04:26:20;98085.25;;;16.29;100.00
56198;BME280;42700;42.524;12.052;2022-10-24T04:28:46;98141.31;;;16.37;100.00
56198;BME280;42700;42.524;12.052;2022-10-24T04:31:12;98233.50;;;16.50;100.00
56198;BME280;42700;42.524;12.052;2022-10-24T04:33:37;98204.03;;;16.50;100.00
56198;BME280;42700;42.524;12.052;2022-10-24T04:36:03;98179.91;;;16.50;100.00
56198;BME280;42700;42.524;12.052;2022-10-24T04:38:29;98189.41;;;16.52;100.00
56198;BME280;42700;42.524;12.052;2022-10-24T04:40:54;98145.91;;;16.50;100.00
56198;BME280;42700;42.524;12.052;2022-10-24T04:43:21;98219.91;;;16.58;100.00
56198;BME280;42700;42.524;12.052;2022-10-24T04:45:47;98241.38;;;16.65;100.00
56198;BME280;42700;42.524;12.052;2022-10-24T04:48:13;98236.88;;;16.65;100.00
56198;BME280;42700;42.524;12.052;2022-10-24T04:50:39;98257.28;;;16.66;100.00
56198;BME280;42700;42.524;12.052;2022-10-24T04:53:06;98250.91;;;16.67;100.00
56198;BME280;42700;42.524;12.052;2022-10-24T04:55:32;98264.53;;;16.72;100.00
56198;BME280;42700;42.524;12.052;2022-10-24T04:57:57;98308.25;;;16.79;100.00
56198;BME280;42700;42.524;12.052;2022-10-24T05:00:23;98308.25;;;16.79;100.00
56198;BME280;42700;42.524;12.052;2022-10-24T05:02:48;98278.75;;;16.79;100.00
56198;BME280;42700;42.524;12.052;2022-10-24T05:05:14;98278.75;;;16.79;100.00
56198;BME280;42700;42.524;12.052;2022-10-24T05:07:41;98236.28;;;16.76;100.00
56198;BME280;42700;42.524;12.052;2022-10-24T05:10:07;98214.19;;;16.74;100.00
56198;BME280;42700;42.524;12.052;2022-10-24T05:12:32;98177.03;;;16.71;100.00
56198;BME280;42700;42.524;12.052;2022-10-24T05:14:58;98193.13;;;16.71;100.00
56198;BME280;42700;42.524;12.052;2022-10-24T05:17:23;98224.91;;;16.74;100.00
56198;BME280;42700;42.524;12.052;2022-10-24T05:19:49;98221.63;;;16.72;100.00
56198;BME280;42700;42.524;12.052;2022-10-24T05:22:14;98195.81;;;16.71;100.00
56198;BME280;42700;42.524;12.052;2022-10-24T05:24:40;98180.56;;;16.72;100.00
56198;BME280;42700;42.524;12.052;2022-10-24T05:27:05;98181.59;;;16.71;100.00
56198;BME280;42700;42.524;12.052;2022-10-24T05:29:31;98184.06;;;16.72;100.00
56198;BME280;42700;42.524;12.052;2022-10-24T05:31:56;98157.66;;;16.69;100.00
56198;BME280;42700;42.524;12.052;2022-10-24T05:34:22;98154.38;;;16.67;100.00
56198;BME280;42700;42.524;12.052;2022-10-24T05:36:47;98121.59;;;16.65;100.00
56198;BME280;42700;42.524;12.052;2022-10-24T05:39:13;98111.88;;;16.64;100.00
56198;BME280;42700;42.524;12.052;2022-10-24T05:41:38;98117.25;;;16.64;100.00
56198;BME280;42700;42.524;12.052;2022-10-24T05:44:04;98157.06;;;16.67;100.00
56198;BME280;42700;42.524;12.052;2022-10-24T05:46:29;98224.28;;;16.72;100.00
56198;BME280;42700;42.524;12.052;2022-10-24T05:48:55;98226.97;;;16.72;100.00
56198;BME280;42700;42.524;12.052;2022-10-24T05:51:20;98226.97;;;16.72;100.00
56198;BME280;42700;42.524;12.052;2022-10-24T05:53:46;98258.75;;;16.75;100.00
56198;BME280;42700;42.524;12.052;2022-10-24T05:56:12;98264.94;;;16.76;100.00
56198;BME280;42700;42.524;12.052;2022-10-24T05:58:37;98292.16;;;16.79;100.00
56198;BME280;42700;42.524;12.052;2022-10-24T06:01:03;98270.72;;;16.79;100.00
56198;BME280;42700;42.524;12.052;2022-10-24T06:03:28;98312.84;;;16.86;100.00
56198;BME280;42700;42.524;12.052;2022-10-24T06:05:54;98340.94;;;16.90;100.00
56198;BME280;42700;42.524;12.052;2022-10-24T06:08:20;98359.94;;;16.95;100.00
56198;BME280;42700;42.524;12.052;2022-10-24T06:10:46;98385.31;;;16.99;100.00
56198;BME280;42700;42.524;12.052;2022-10-24T06:13:12;98422.72;;;17.07;100.00
56198;BME280;42700;42.524;12.052;2022-10-24T06:15:39;98457.81;;;17.12;100.00
56198;BME280;42700;42.524;12.052;2022-10-24T06:18:05;98483.84;;;17.19;100.00
56198;BME280;42700;42.524;12.052;2022-10-24T06:20:30;98530.97;;;17.28;100.00
56198;BME280;42700;42.524;12.052;2022-10-24T06:22:56;98578.09;;;17.37;100.00
56198;BME280;42700;42.524;12.052;2022-10-24T06:25:21;98597.13;;;17.42;100.00
56198;BME280;42700;42.524;12.052;2022-10-24T06:27:46;98670.34;;;17.58;100.00
56198;BME280;42700;42.524;12.052;2022-10-24T06:30:12;98712.09;;;17.67;100.00
56198;BME280;42700;42.524;12.052;2022-10-24T06:32:38;98705.31;;;17.71;100.00
56198;BME280;42700;42.524;12.052;2022-10-24T06:35:04;98774.59;;;17.82;100.00
56198;BME280;42700;42.524;12.052;2022-10-24T06:37:30;98821.81;;;17.92;100.00
56198;BME280;42700;42.524;12.052;2022-10-24T06:39:55;98864.84;;;17.98;100.00
56198;BME280;42700;42.524;12.052;2022-10-24T06:42:21;98868.63;;;18.04;100.00
56198;BME280;42700;42.524;12.052;2022-10-24T06:44:46;98980.19;;;18.21;100.00
56198;BME280;42700;42.524;12.052;2022-10-24T06:47:12;99050.81;;;18.37;100.00
56198;BME280;42700;42.524;12.052;2022-10-24T06:49:37;99122.53;;;18.51;100.00
56198;BME280;42700;42.524;12.052;2022-10-24T06:52:03;99214.19;;;18.71;100.00
56198;BME280;42700;42.524;12.052;2022-10-24T06:54:28;99281.44;;;18.86;100.00
56198;BME280;42700;42.524;12.052;2022-10-24T06:56:55;99388.09;;;19.09;100.00
56198;BME280;42700;42.524;12.052;2022-10-24T06:59:20;99450.81;;;19.24;100.00
56198;BME280;42700;42.524;12.052;2022-10-24T07:01:46;99449.69;;;19.33;100.00
56198;BME280;42700;42.524;12.052;2022-10-24T07:04:11;99502.38;;;19.43;100.00
56198;BME280;42700;42.524;12.052;2022-10-24T07:06:37;99630.47;;;19.60;100.00
56198;BME280;42700;42.524;12.052;2022-10-24T07:09:03;99726.09;;;19.79;100.00
56198;BME280;42700;42.524;12.052;2022-10-24T07:11:29;99707.72;;;19.83;100.00
56198;BME280;42700;42.524;12.052;2022-10-24T07:13:55;99857.38;;;20.08;100.00
56198;BME280;42700;42.524;12.052;2022-10-24T07:16:20;99979.50;;;20.32;100.00
56198;BME280;42700;42.524;12.052;2022-10-24T07:18:46;100041.75;;;20.45;100.00
56198;BME280;42700;42.524;12.052;2022-10-24T07:21:22;100126.31;;;20.61;100.00
56198;BME280;42700;42.524;12.052;2022-10-24T07:23:49;100277.97;;;20.88;100.00
56198;BME280;42700;42.524;12.052;2022-10-24T07:26:15;100244.84;;;20.94;100.00
56198;BME280;42700;42.524;12.052;2022-10-24T07:28:41;100066.44;;;20.80;100.00
56198;BME280;42700;42.524;12.052;2022-10-24T07:31:08;100262.00;;;21.01;100.00
56198;BME280;42700;42.524;12.052;2022-10-24T07:33:37;100248.13;;;21.04;100.00
56198;BME280;42700;42.524;12.052;2022-10-24T07:36:03;100369.91;;;21.17;100.00
56198;BME280;42700;42.524;12.052;2022-10-24T07:38:28;100502.38;;;21.32;100.00
56198;BME280;42700;42.524;12.052;2022-10-24T07:40:54;100655.53;;;21.56;100.00
56198;BME280;42700;42.524;12.052;2022-10-24T07:43:19;100397.47;;;21.36;100.00
56198;BME280;42700;42.524;12.052;2022-10-24T07:45:45;100239.22;;;21.18;100.00
56198;BME280;42700;42.524;12.052;2022-10-24T07:48:10;100236.22;;;21.13;100.00
56198;BME280;42700;42.524;12.052;2022-10-24T07:50:44;100265.94;;;21.13;100.00
56198;BME280;42700;42.524;12.052;2022-10-24T07:53:10;100143.53;;;20.98;100.00
56198;BME280;42700;42.524;12.052;2022-10-24T07:55:39;100163.84;;;20.94;100.00
56198;BME280;42700;42.524;12.052;2022-10-24T07:58:05;100143.78;;;20.88;100.00
56198;BME280;42700;42.524;12.052;2022-10-24T08:00:31;100215.69;;;20.89;100.00
56198;BME280;42700;42.524;12.052;2022-10-24T08:02:56;100249.09;;;20.88;100.00
56198;BME280;42700;42.524;12.052;2022-10-24T08:05:23;100327.91;;;20.92;100.00
56198;BME280;42700;42.524;12.052;2022-10-24T08:07:48;100319.13;;;20.90;100.00
56198;BME280;42700;42.524;12.052;2022-10-24T08:10:15;100421.06;;;20.96;100.00
56198;BME280;42700;42.524;12.052;2022-10-24T08:12:40;100562.97;;;21.07;100.00
56198;BME280;42700;42.524;12.052;2022-10-24T08:15:06;100745.47;;;21.26;100.00
56198;BME280;42700;42.524;12.052;2022-10-24T08:17:32;100948.50;;;21.47;100.00
56198;BME280;42700;42.524;12.052;2022-10-24T08:19:57;101171.63;;;21.76;100.00
56198;BME280;42700;42.524;12.052;2022-10-24T08:22:23;101245.72;;;21.91;100.00
56198;BME280;42700;42.524;12.052;2022-10-24T08:24:48;101413.59;;;22.16;100.00
56198;BME280;42700;42.524;12.052;2022-10-24T08:27:14;101547.03;;;22.35;100.00
56198;BME280;42700;42.524;12.052;2022-10-24T08:29:39;101626.34;;;22.53;100.00
56198;BME280;42700;42.524;12.052;2022-10-24T08:32:05;101709.19;;;22.64;100.00
56198;BME280;42700;42.524;12.052;2022-10-24T08:34:31;101815.13;;;22.79;100.00
56198;BME280;42700;42.524;12.052;2022-10-24T08:36:57;101700.50;;;22.78;100.00
56198;BME280;42700;42.524;12.052;2022-10-24T08:39:23;101849.81;;;22.93;100.00
56198;BME280;42700;42.524;12.052;2022-10-24T08:41:52;101894.25;;;23.00;100.00
56198;BME280;42700;42.524;12.052;2022-10-24T08:44:32;101903.63;;;23.06;100.00
56198;BME280;42700;42.524;12.052;2022-10-24T08:52:29;101324.06;;;22.77;100.00
56198;BME280;42700;42.524;12.052;2022-10-24T08:54:56;101779.16;;;23.13;100.00
56198;BME280;42700;42.524;12.052;2022-10-24T08:57:27;102178.78;;;23.48;100.00
56198;BME280;42700;42.524;12.052;2022-10-24T08:59:56;102403.97;;;23.75;100.00
56198;BME280;42700;42.524;12.052;2022-10-24T09:02:23;102232.59;;;23.70;100.00
56198;BME280;42700;42.524;12.052;2022-10-24T09:04:51;102469.22;;;23.93;100.00
56198;BME280;42700;42.524;12.052;2022-10-24T09:07:20;102280.94;;;23.85;100.00
56198;BME280;42700;42.524;12.052;2022-10-24T09:09:47;102546.72;;;24.16;100.00
56198;BME280;42700;42.524;12.052;2022-10-24T09:12:14;102758.84;;;24.42;100.00
56198;BME280;42700;42.524;12.052;2022-10-24T09:14:41;101981.06;;;23.89;100.00
56198;BME280;42700;42.524;12.052;2022-10-24T09:19:43;103012.47;;;24.81;100.00
56198;BME280;42700;42.524;12.052;2022-10-24T09:22:11;103264.59;;;25.10;100.00
56198;BME280;42700;42.524;12.052;2022-10-24T09:25:11;103170.09;;;25.12;100.00
56198;BME280;42700;42.524;12.052;2022-10-24T09:27:31;103234.28;;;25.24;100.00
56198;BME280;42700;42.524;12.052;2022-10-24T09:29:57;103285.03;;;25.35;100.00
56198;BME280;42700;42.524;12.052;2022-10-24T09:32:24;103409.72;;;25.51;100.00
56198;BME280;42700;42.524;12.052;2022-10-24T09:34:54;103838.59;;;25.99;100.00
56198;BME280;42700;42.524;12.052;2022-10-24T09:37:34;103873.84;;;26.12;100.00
56198;BME280;42700;42.524;12.052;2022-10-24T09:40:14;103991.22;;;26.31;100.00
56198;BME280;42700;42.524;12.052;2022-10-24T09:42:45;103615.72;;;26.14;100.00
56198;BME280;42700;42.524;12.052;2022-10-24T09:47:56;104156.97;;;26.72;100.00
56198;BME280;42700;42.524;12.052;2022-10-24T09:50:22;103982.28;;;26.62;100.00
56198;BME280;42700;42.524;12.052;2022-10-24T09:52:49;103911.03;;;26.66;100.00
56198;BME280;42700;42.524;12.052;2022-10-24T09:55:16;103824.03;;;26.63;100.00
56198;BME280;42700;42.524;12.052;2022-10-24T09:57:44;103737.41;;;26.56;100.00
56198;BME280;42700;42.524;12.052;2022-10-24T10:00:19;104491.34;;;27.21;100.00
56198;BME280;42700;42.524;12.052;2022-10-24T10:03:01;104478.72;;;27.31;100.00
56198;BME280;42700;42.524;12.052;2022-10-24T10:05:40;104201.75;;;27.13;100.00
56198;BME280;42700;42.524;12.052;2022-10-24T10:08:11;104367.63;;;27.32;100.00
56198;BME280;42700;42.524;12.052;2022-10-24T10:10:39;104707.38;;;27.52;100.00
56198;BME280;42700;42.524;12.052;2022-10-24T10:13:06;104587.44;;;27.49;100.00
56198;BME280;42700;42.524;12.052;2022-10-24T10:15:45;104235.00;;;27.29;100.00
56198;BME280;42700;42.524;12.052;2022-10-24T10:18:34;104393.31;;;27.40;100.00
56198;BME280;42700;42.524;12.052;2022-10-24T10:21:02;103604.63;;;26.87;100.00
56198;BME280;42700;42.524;12.052;2022-10-24T10:23:29;103184.63;;;26.58;100.00
56198;BME280;42700;42.524;12.052;2022-10-24T10:26:04;102642.38;;;26.12;100.00
56198;BME280;42700;42.524;12.052;2022-10-24T10:28:32;102489.78;;;26.04;100.00
56198;BME280;42700;42.524;12.052;2022-10-24T10:30:57;102719.88;;;26.18;100.00
56198;BME280;42700;42.524;12.052;2022-10-24T10:36:40;102263.00;;;25.85;100.00
56198;BME280;42700;42.524;12.052;2022-10-24T10:41:48;101492.06;;;25.12;100.00
56198;BME280;42700;42.524;12.052;2022-10-24T10:49:43;101590.72;;;24.98;100.00
56198;BME280;42700;42.524;12.052;2022-10-24T10:54:59;102067.94;;;25.27;100.00
56198;BME280;42700;42.524;12.052;2022-10-24T10:59:57;102320.69;;;25.46;100.00
56198;BME280;42700;42.524;12.052;2022-10-24T11:05:17;101929.19;;;25.18;100.00
56198;BME280;42700;42.524;12.052;2022-10-24T11:08:07;101777.94;;;25.09;100.00
56198;BME280;42700;42.524;12.052;2022-10-24T11:10:36;101623.69;;;24.95;100.00
56198;BME280;42700;42.524;12.052;2022-10-24T11:13:04;101686.88;;;24.97;100.00
56198;BME280;42700;42.524;12.052;2022-10-24T11:15:35;101693.38;;;24.96;100.00
56198;BME280;42700;42.524;12.052;2022-10-24T11:18:09;101355.59;;;24.71;100.00
56198;BME280;42700;42.524;12.052;2022-10-24T11:20:39;101471.91;;;24.75;100.00
56198;BME280;42700;42.524;12.052;2022-10-24T11:25:45;101781.38;;;24.95;100.00
56198;BME280;42700;42.524;12.052;2022-10-24T11:33:20;102223.66;;;25.29;100.00
56198;BME280;42700;42.524;12.052;2022-10-24T11:38:30;102428.84;;;25.44;100.00
56198;BME280;42700;42.524;12.052;2022-10-24T11:41:00;102244.28;;;25.31;100.00
56198;BME280;42700;42.524;12.052;2022-10-24T11:43:29;102520.72;;;25.50;100.00
56198;BME280;42700;42.524;12.052;2022-10-24T11:46:03;102657.59;;;25.60;100.00
56198;BME280;42700;42.524;12.052;2022-10-24T11:48:37;102498.94;;;25.50;100.00
56198;BME280;42700;42.524;12.052;2022-10-24T11:51:07;102486.38;;;25.49;100.00
56198;BME280;42700;42.524;12.052;2022-10-24T11:56:05;102620.63;;;25.58;100.00
56198;BME280;42700;42.524;12.052;2022-10-24T11:58:45;102563.94;;;25.53;100.00
56198;BME280;42700;42.524;12.052;2022-10-24T12:01:35;102468.31;;;25.48;100.00
56198;BME280;42700;42.524;12.052;2022-10-24T12:09:21;102424.09;;;25.46;100.00
56198;BME280;42700;42.524;12.052;2022-10-24T12:14:31;102481.75;;;25.50;100.00
56198;BME280;42700;42.524;12.052;2022-10-24T12:17:15;102495.22;;;25.51;100.00
56198;BME280;42700;42.524;12.052;2022-10-24T12:19:46;102481.91;;;25.48;100.00
56198;BME280;42700;42.524;12.052;2022-10-24T12:22:14;102165.00;;;25.26;100.00
56198;BME280;42700;42.524;12.052;2022-10-24T12:24:41;102014.88;;;25.14;100.00
56198;BME280;42700;42.524;12.052;2022-10-24T12:27:18;102110.41;;;25.19;100.00
56198;BME280;42700;42.524;12.052;2022-10-24T12:29:58;102147.44;;;25.20;100.00
56198;BME280;42700;42.524;12.052;2022-10-24T12:32:39;102243.75;;;25.28;100.00
56198;BME280;42700;42.524;12.052;2022-10-24T12:37:49;102098.13;;;25.15;100.00
56198;BME280;42700;42.524;12.052;2022-10-24T12:45:28;101768.97;;;24.84;100.00
56198;BME280;42700;42.524;12.052;2022-10-24T12:57:55;102099.97;;;24.98;100.00
56198;BME280;42700;42.524;12.052;2022-10-24T13:00:26;102184.44;;;25.05;100.00
56198;BME280;42700;42.524;12.052;2022-10-24T13:03:02;102260.13;;;25.10;100.00
56198;BME280;42700;42.524;12.052;2022-10-24T13:05:36;102500.31;;;25.28;100.00
56198;BME280;42700;42.524;12.052;2022-10-24T13:08:20;102613.66;;;25.37;100.00
56198;BME280;42700;42.524;12.052;2022-10-24T13:15:44;102613.88;;;25.44;100.00
56198;BME280;42700;42.524;12.052;2022-10-24T13:18:23;102709.38;;;25.51;100.00
56198;BME280;42700;42.524;12.052;2022-10-24T13:21:06;104145.31;;;26.58;100.00
56198;BME280;42700;42.524;12.052;2022-10-24T13:23:32;104211.00;;;26.78;100.00
56198;BME280;42700;42.524;12.052;2022-10-24T13:25:58;104143.44;;;26.81;100.00
56198;BME280;42700;42.524;12.052;2022-10-24T13:30:50;104114.16;;;26.83;100.00
56198;BME280;42700;42.524;12.052;2022-10-24T13:38:46;103136.88;;;26.16;100.00
56198;BME280;42700;42.524;12.052;2022-10-24T13:41:18;103388.69;;;26.33;100.00
56198;BME280;42700;42.524;12.052;2022-10-24T13:43:46;103837.41;;;26.66;100.00
56198;BME280;42700;42.524;12.052;2022-10-24T13:46:18;104456.47;;;27.13;100.00
56198;BME280;42700;42.524;12.052;2022-10-24T13:48:45;104530.81;;;27.28;100.00
56198;BME280;42700;42.524;12.052;2022-10-24T13:53:42;105135.19;;;27.91;100.00
56198;BME280;42700;42.524;12.052;2022-10-24T13:56:11;104860.97;;;27.79;100.00
56198;BME280;42700;42.524;12.052;2022-10-24T13:58:39;104931.19;;;27.90;100.00
56198;BME280;42700;42.524;12.052;2022-10-24T14:01:06;104964.97;;;28.02;100.00
56198;BME280;42700;42.524;12.052;2022-10-24T14:03:35;105262.69;;;28.31;100.00
56198;BME280;42700;42.524;12.052;2022-10-24T14:06:01;105331.06;;;28.44;100.00
56198;BME280;42700;42.524;12.052;2022-10-24T14:11:15;105074.50;;;28.36;100.00
56198;BME280;42700;42.524;12.052;2022-10-24T14:13:43;104925.53;;;28.29;100.00
56198;BME280;42700;42.524;12.052;2022-10-24T14:16:09;104302.91;;;27.87;100.00
56198;BME280;42700;42.524;12.052;2022-10-24T14:18:35;103674.19;;;27.41;100.00
56198;BME280;42700;42.524;12.052;2022-10-24T14:21:03;103123.13;;;27.01;100.00
56198;BME280;42700;42.524;12.052;2022-10-24T14:23:31;102445.31;;;26.46;100.00
56198;BME280;42700;42.524;12.052;2022-10-24T14:26:03;102036.47;;;26.06;100.00
56198;BME280;42700;42.524;12.052;2022-10-24T14:28:38;102461.63;;;26.29;100.00
56198;BME280;42700;42.524;12.052;2022-10-24T14:31:19;102896.53;;;26.58;100.00